International Virtual Aviation Organisation

Russian Federation and Kazakhstan MCD

 
URWI 270330Z AUTO 30003MPS 0200 0100W // ///001/// M06/M07 Q1028 RMK QBB030
QNH:(hPa/inHg/mmHg)1028 / 30.36 / 771
QFE:(hPa/inHg/mmHg)1009 / 29.81 / 757
Temperature-6
Dew Point-7
Visibility0100
Weather
Cloud Cover
Transition Height900 m./3500 ft.
Transition LevelFL50
SQUAWK